sensor_id;sensor_type;location;lat;lon;timestamp;temperature;humidity
20370;DHT22;10344;47.592;9.600;2022-10-26T00:01:52;13.50;99.90
20370;DHT22;10344;47.592;9.600;2022-10-26T00:04:27;13.40;99.90
20370;DHT22;10344;47.592;9.600;2022-10-26T00:06:57;13.40;99.90
20370;DHT22;10344;47.592;9.600;2022-10-26T00:09:57;13.40;99.90
20370;DHT22;10344;47.592;9.600;2022-10-26T00:12:26;13.60;99.90
20370;DHT22;10344;47.592;9.600;2022-10-26T00:15:06;13.40;99.90
20370;DHT22;10344;47.592;9.600;2022-10-26T00:17:39;13.40;99.90
20370;DHT22;10344;47.592;9.600;2022-10-26T00:20:43;13.30;99.90
20370;DHT22;10344;47.592;9.600;2022-10-26T00:23:20;13.20;99.90
20370;DHT22;10344;47.592;9.600;2022-10-26T00:25:58;13.20;99.90
20370;DHT22;10344;47.592;9.600;2022-10-26T00:28:29;13.10;99.90
20370;DHT22;10344;47.592;9.600;2022-10-26T00:31:01;13.10;99.90
20370;DHT22;10344;47.592;9.600;2022-10-26T00:33:37;13.10;99.90
20370;DHT22;10344;47.592;9.600;2022-10-26T00:36:14;13.20;99.90
20370;DHT22;10344;47.592;9.600;2022-10-26T00:38:59;13.10;99.90
20370;DHT22;10344;47.592;9.600;2022-10-26T00:41:38;13.10;99.90
20370;DHT22;10344;47.592;9.600;2022-10-26T00:47:35;13.20;99.90
20370;DHT22;10344;47.592;9.600;2022-10-26T00:50:07;13.20;99.90
20370;DHT22;10344;47.592;9.600;2022-10-26T00:52:41;13.10;99.90
20370;DHT22;10344;47.592;9.600;2022-10-26T00:55:26;13.10;99.90
20370;DHT22;10344;47.592;9.600;2022-10-26T00:57:57;13.00;99.90
20370;DHT22;10344;47.592;9.600;2022-10-26T01:00:28;13.00;99.90
20370;DHT22;10344;47.592;9.600;2022-10-26T01:03:05;13.10;99.90
20370;DHT22;10344;47.592;9.600;2022-10-26T01:05:42;13.00;99.90
20370;DHT22;10344;47.592;9.600;2022-10-26T01:08:25;13.00;99.90
20370;DHT22;10344;47.592;9.600;2022-10-26T01:10:56;13.00;99.90
20370;DHT22;10344;47.592;9.600;2022-10-26T01:13:51;13.00;99.90
20370;DHT22;10344;47.592;9.600;2022-10-26T01:16:49;13.00;99.90
20370;DHT22;10344;47.592;9.600;2022-10-26T01:31:59;12.90;99.90
20370;DHT22;10344;47.592;9.600;2022-10-26T01:35:22;12.90;99.90
20370;DHT22;10344;47.592;9.600;2022-10-26T01:41:16;12.80;99.90
20370;DHT22;10344;47.592;9.600;2022-10-26T01:43:55;12.70;99.90
20370;DHT22;10344;47.592;9.600;2022-10-26T01:46:26;12.70;99.90
20370;DHT22;10344;47.592;9.600;2022-10-26T01:48:58;12.60;99.90
20370;DHT22;10344;47.592;9.600;2022-10-26T01:51:30;12.60;99.90
20370;DHT22;10344;47.592;9.600;2022-10-26T01:54:08;12.50;99.90
20370;DHT22;10344;47.592;9.600;2022-10-26T01:56:43;12.50;99.90
20370;DHT22;10344;47.592;9.600;2022-10-26T02:03:20;12.40;99.90
20370;DHT22;10344;47.592;9.600;2022-10-26T02:06:18;12.40;99.90
20370;DHT22;10344;47.592;9.600;2022-10-26T02:09:33;12.40;99.90
20370;DHT22;10344;47.592;9.600;2022-10-26T02:15:26;12.30;99.90
20370;DHT22;10344;47.592;9.600;2022-10-26T02:21:14;12.20;99.90
20370;DHT22;10344;47.592;9.600;2022-10-26T02:24:14;12.10;99.90
20370;DHT22;10344;47.592;9.600;2022-10-26T02:26:45;12.00;99.90
20370;DHT22;10344;47.592;9.600;2022-10-26T02:29:17;12.00;99.90
20370;DHT22;10344;47.592;9.600;2022-10-26T02:32:28;12.00;99.90
20370;DHT22;10344;47.592;9.600;2022-10-26T02:35:22;12.00;99.90
20370;DHT22;10344;47.592;9.600;2022-10-26T02:38:09;12.00;99.90
20370;DHT22;10344;47.592;9.600;2022-10-26T02:40:50;12.00;99.90
20370;DHT22;10344;47.592;9.600;2022-10-26T02:43:32;12.10;99.90
20370;DHT22;10344;47.592;9.600;2022-10-26T02:46:19;12.10;99.90
20370;DHT22;10344;47.592;9.600;2022-10-26T02:49:12;12.20;99.90
20370;DHT22;10344;47.592;9.600;2022-10-26T02:55:10;12.40;99.90
20370;DHT22;10344;47.592;9.600;2022-10-26T02:57:46;12.70;99.90
20370;DHT22;10344;47.592;9.600;2022-10-26T03:00:21;12.70;99.90
20370;DHT22;10344;47.592;9.600;2022-10-26T03:02:57;12.80;99.90
20370;DHT22;10344;47.592;9.600;2022-10-26T03:05:49;12.90;99.90
20370;DHT22;10344;47.592;9.600;2022-10-26T03:08:20;13.00;99.90
20370;DHT22;10344;47.592;9.600;2022-10-26T03:10:56;13.10;99.90
20370;DHT22;10344;47.592;9.600;2022-10-26T03:13:34;13.30;99.90
20370;DHT22;10344;47.592;9.600;2022-10-26T03:16:00;13.30;99.90
20370;DHT22;10344;47.592;9.600;2022-10-26T03:18:28;13.30;99.90
20370;DHT22;10344;47.592;9.600;2022-10-26T03:21:01;13.20;99.90
20370;DHT22;10344;47.592;9.600;2022-10-26T03:23:36;13.30;99.90
20370;DHT22;10344;47.592;9.600;2022-10-26T03:26:11;13.30;99.90
20370;DHT22;10344;47.592;9.600;2022-10-26T03:29:06;13.10;99.90
20370;DHT22;10344;47.592;9.600;2022-10-26T03:31:48;13.00;99.90
20370;DHT22;10344;47.592;9.600;2022-10-26T03:34:20;13.00;99.90
20370;DHT22;10344;47.592;9.600;2022-10-26T03:37:07;13.00;99.90
20370;DHT22;10344;47.592;9.600;2022-10-26T03:39:35;12.90;99.90
20370;DHT22;10344;47.592;9.600;2022-10-26T03:42:25;12.90;99.90
20370;DHT22;10344;47.592;9.600;2022-10-26T03:45:01;12.80;99.90
20370;DHT22;10344;47.592;9.600;2022-10-26T03:47:29;13.00;99.90
20370;DHT22;10344;47.592;9.600;2022-10-26T03:50:28;13.20;99.90
20370;DHT22;10344;47.592;9.600;2022-10-26T03:52:54;13.20;99.90
20370;DHT22;10344;47.592;9.600;2022-10-26T03:55:26;13.20;99.90
20370;DHT22;10344;47.592;9.600;2022-10-26T03:57:54;13.20;99.90
20370;DHT22;10344;47.592;9.600;2022-10-26T04:00:51;13.20;99.90
20370;DHT22;10344;47.592;9.600;2022-10-26T04:03:19;13.20;99.90
20370;DHT22;10344;47.592;9.600;2022-10-26T04:06:06;13.10;99.90
20370;DHT22;10344;47.592;9.600;2022-10-26T04:08:35;13.10;99.90
20370;DHT22;10344;47.592;9.600;2022-10-26T04:11:06;13.10;99.90
20370;DHT22;10344;47.592;9.600;2022-10-26T04:13:35;13.10;99.90
20370;DHT22;10344;47.592;9.600;2022-10-26T04:16:28;13.10;99.90
20370;DHT22;10344;47.592;9.600;2022-10-26T04:19:28;13.10;99.90
20370;DHT22;10344;47.592;9.600;2022-10-26T04:22:35;13.10;99.90
20370;DHT22;10344;47.592;9.600;2022-10-26T04:25:35;13.10;99.90
20370;DHT22;10344;47.592;9.600;2022-10-26T04:28:20;13.10;99.90
20370;DHT22;10344;47.592;9.600;2022-10-26T04:31:09;13.10;99.90
20370;DHT22;10344;47.592;9.600;2022-10-26T04:33:43;13.10;99.90
20370;DHT22;10344;47.592;9.600;2022-10-26T04:36:46;13.10;99.90
20370;DHT22;10344;47.592;9.600;2022-10-26T04:39:20;13.10;99.90
20370;DHT22;10344;47.592;9.600;2022-10-26T04:42:09;13.10;99.90
20370;DHT22;10344;47.592;9.600;2022-10-26T04:45:13;13.10;99.90
20370;DHT22;10344;47.592;9.600;2022-10-26T04:48:18;13.20;99.90
20370;DHT22;10344;47.592;9.600;2022-10-26T04:50:59;13.30;99.90
20370;DHT22;10344;47.592;9.600;2022-10-26T04:53:28;13.30;99.90
20370;DHT22;10344;47.592;9.600;2022-10-26T04:56:16;13.30;99.90
20370;DHT22;10344;47.592;9.600;2022-10-26T04:58:46;13.30;99.90
20370;DHT22;10344;47.592;9.600;2022-10-26T05:01:24;13.20;99.90
20370;DHT22;10344;47.592;9.600;2022-10-26T05:04:02;13.30;99.90
20370;DHT22;10344;47.592;9.600;2022-10-26T05:06:33;13.20;99.90
20370;DHT22;10344;47.592;9.600;2022-10-26T05:11:39;13.10;99.90
20370;DHT22;10344;47.592;9.600;2022-10-26T05:14:09;13.10;99.90
20370;DHT22;10344;47.592;9.600;2022-10-26T05:16:38;13.10;99.90
20370;DHT22;10344;47.592;9.600;2022-10-26T05:19:10;13.10;99.90
20370;DHT22;10344;47.592;9.600;2022-10-26T05:21:39;13.10;99.90
20370;DHT22;10344;47.592;9.600;2022-10-26T05:24:07;13.20;99.90
20370;DHT22;10344;47.592;9.600;2022-10-26T05:26:54;13.20;99.90
20370;DHT22;10344;47.592;9.600;2022-10-26T05:29:36;13.20;99.90
20370;DHT22;10344;47.592;9.600;2022-10-26T05:32:12;13.20;99.90
20370;DHT22;10344;47.592;9.600;2022-10-26T05:34:44;13.20;99.90
20370;DHT22;10344;47.592;9.600;2022-10-26T05:37:10;13.30;99.90
20370;DHT22;10344;47.592;9.600;2022-10-26T05:40:16;13.30;99.90
20370;DHT22;10344;47.592;9.600;2022-10-26T05:43:02;13.30;99.90
20370;DHT22;10344;47.592;9.600;2022-10-26T05:45:41;13.30;99.90
20370;DHT22;10344;47.592;9.600;2022-10-26T05:48:40;13.40;99.90
20370;DHT22;10344;47.592;9.600;2022-10-26T05:51:33;13.40;99.90
20370;DHT22;10344;47.592;9.600;2022-10-26T05:54:19;13.40;99.90
20370;DHT22;10344;47.592;9.600;2022-10-26T05:57:15;13.60;99.90
20370;DHT22;10344;47.592;9.600;2022-10-26T05:59:45;13.70;99.90
20370;DHT22;10344;47.592;9.600;2022-10-26T06:13:07;14.00;99.90
20370;DHT22;10344;47.592;9.600;2022-10-26T06:32:42;14.10;99.90
20370;DHT22;10344;47.592;9.600;2022-10-26T06:38:34;14.20;99.90
20370;DHT22;10344;47.592;9.600;2022-10-26T07:17:55;14.00;99.90
20370;DHT22;10344;47.592;9.600;2022-10-26T07:24:50;14.00;99.90
20370;DHT22;10344;47.592;9.600;2022-10-26T07:28:17;14.40;99.90
20370;DHT22;10344;47.592;9.600;2022-10-26T07:31:52;14.60;99.90
20370;DHT22;10344;47.592;9.600;2022-10-26T07:34:53;14.50;99.90
20370;DHT22;10344;47.592;9.600;2022-10-26T07:38:09;14.40;99.90
20370;DHT22;10344;47.592;9.600;2022-10-26T07:41:24;14.50;99.90
20370;DHT22;10344;47.592;9.600;2022-10-26T07:44:20;14.40;99.90
20370;DHT22;10344;47.592;9.600;2022-10-26T07:47:44;14.60;99.90
20370;DHT22;10344;47.592;9.600;2022-10-26T07:51:08;14.40;99.90
20370;DHT22;10344;47.592;9.600;2022-10-26T07:57:21;14.30;99.90
20370;DHT22;10344;47.592;9.600;2022-10-26T08:00:07;14.30;99.90
20370;DHT22;10344;47.592;9.600;2022-10-26T08:03:22;14.40;99.90
20370;DHT22;10344;47.592;9.600;2022-10-26T08:09:18;14.50;99.90
20370;DHT22;10344;47.592;9.600;2022-10-26T08:12:33;14.50;99.90
20370;DHT22;10344;47.592;9.600;2022-10-26T08:15:23;14.40;99.90
20370;DHT22;10344;47.592;9.600;2022-10-26T08:18:19;14.40;99.90
20370;DHT22;10344;47.592;9.600;2022-10-26T08:24:54;14.30;99.90
20370;DHT22;10344;47.592;9.600;2022-10-26T08:28:03;14.30;99.90
20370;DHT22;10344;47.592;9.600;2022-10-26T08:30:47;14.30;99.90
20370;DHT22;10344;47.592;9.600;2022-10-26T08:34:15;14.30;99.90
20370;DHT22;10344;47.592;9.600;2022-10-26T08:37:31;14.30;99.90
20370;DHT22;10344;47.592;9.600;2022-10-26T08:40:24;14.30;99.90
20370;DHT22;10344;47.592;9.600;2022-10-26T08:43:26;14.40;99.90
20370;DHT22;10344;47.592;9.600;2022-10-26T08:46:35;14.40;99.90
20370;DHT22;10344;47.592;9.600;2022-10-26T08:49:53;14.50;99.90
20370;DHT22;10344;47.592;9.600;2022-10-26T08:53:16;14.60;99.90
20370;DHT22;10344;47.592;9.600;2022-10-26T08:56:24;14.60;99.90
20370;DHT22;10344;47.592;9.600;2022-10-26T08:59:02;14.60;99.90
20370;DHT22;10344;47.592;9.600;2022-10-26T09:22:18;15.30;99.90
20370;DHT22;10344;47.592;9.600;2022-10-26T09:26:00;15.60;99.90
20370;DHT22;10344;47.592;9.600;2022-10-26T09:29:17;15.80;99.90
20370;DHT22;10344;47.592;9.600;2022-10-26T09:33:11;16.20;99.90
20370;DHT22;10344;47.592;9.600;2022-10-26T09:43:23;16.40;99.90
20370;DHT22;10344;47.592;9.600;2022-10-26T09:52:39;18.00;99.90
20370;DHT22;10344;47.592;9.600;2022-10-26T09:55:23;19.00;99.90
20370;DHT22;10344;47.592;9.600;2022-10-26T09:58:01;19.80;99.90
20370;DHT22;10344;47.592;9.600;2022-10-26T10:00:28;19.90;99.90
20370;DHT22;10344;47.592;9.600;2022-10-26T10:02:57;19.80;99.90
20370;DHT22;10344;47.592;9.600;2022-10-26T10:05:24;19.80;99.90
20370;DHT22;10344;47.592;9.600;2022-10-26T10:07:50;20.30;99.90
20370;DHT22;10344;47.592;9.600;2022-10-26T10:10:20;20.80;99.90
20370;DHT22;10344;47.592;9.600;2022-10-26T10:12:49;21.40;99.90
20370;DHT22;10344;47.592;9.600;2022-10-26T10:15:18;22.00;99.90
20370;DHT22;10344;47.592;9.600;2022-10-26T10:17:48;22.60;99.90
20370;DHT22;10344;47.592;9.600;2022-10-26T10:20:18;23.20;99.90
20370;DHT22;10344;47.592;9.600;2022-10-26T10:22:56;23.20;99.90
20370;DHT22;10344;47.592;9.600;2022-10-26T10:25:34;23.10;99.90
20370;DHT22;10344;47.592;9.600;2022-10-26T10:28:02;22.70;99.90
20370;DHT22;10344;47.592;9.600;2022-10-26T10:30:32;22.20;99.90
20370;DHT22;10344;47.592;9.600;2022-10-26T10:33:07;21.80;99.90
20370;DHT22;10344;47.592;9.600;2022-10-26T10:35:35;21.70;99.90
20370;DHT22;10344;47.592;9.600;2022-10-26T10:38:01;22.00;99.90
20370;DHT22;10344;47.592;9.600;2022-10-26T10:40:28;22.40;99.90
20370;DHT22;10344;47.592;9.600;2022-10-26T10:43:13;22.60;99.90
20370;DHT22;10344;47.592;9.600;2022-10-26T10:45:39;22.70;99.90
20370;DHT22;10344;47.592;9.600;2022-10-26T10:50:38;23.40;99.90
20370;DHT22;10344;47.592;9.600;2022-10-26T11:07:41;22.00;99.90
20370;DHT22;10344;47.592;9.600;2022-10-26T11:10:13;21.90;99.90
20370;DHT22;10344;47.592;9.600;2022-10-26T11:12:59;21.80;99.90
20370;DHT22;10344;47.592;9.600;2022-10-26T11:15:30;21.80;99.90
20370;DHT22;10344;47.592;9.600;2022-10-26T11:18:07;21.50;99.90
20370;DHT22;10344;47.592;9.600;2022-10-26T11:20:43;21.50;99.90
20370;DHT22;10344;47.592;9.600;2022-10-26T11:23:18;21.50;99.90
20370;DHT22;10344;47.592;9.600;2022-10-26T11:25:55;21.50;99.90
20370;DHT22;10344;47.592;9.600;2022-10-26T11:28:40;21.70;99.90
20370;DHT22;10344;47.592;9.600;2022-10-26T11:31:14;22.20;99.90
20370;DHT22;10344;47.592;9.600;2022-10-26T11:33:45;22.30;99.90
20370;DHT22;10344;47.592;9.600;2022-10-26T11:36:17;22.20;99.90
20370;DHT22;10344;47.592;9.600;2022-10-26T11:41:21;21.90;99.90
20370;DHT22;10344;47.592;9.600;2022-10-26T11:44:00;21.80;99.90
20370;DHT22;10344;47.592;9.600;2022-10-26T11:49:41;21.90;99.90
20370;DHT22;10344;47.592;9.600;2022-10-26T11:52:18;22.00;99.90
20370;DHT22;10344;47.592;9.600;2022-10-26T11:54:58;22.00;99.90
20370;DHT22;10344;47.592;9.600;2022-10-26T11:57:32;22.00;99.90
20370;DHT22;10344;47.592;9.600;2022-10-26T12:00:03;22.00;99.90
20370;DHT22;10344;47.592;9.600;2022-10-26T12:02:29;21.90;99.90
20370;DHT22;10344;47.592;9.600;2022-10-26T12:05:21;21.90;99.90
20370;DHT22;10344;47.592;9.600;2022-10-26T12:07:59;21.80;99.90
20370;DHT22;10344;47.592;9.600;2022-10-26T12:10:31;21.60;99.90
20370;DHT22;10344;47.592;9.600;2022-10-26T12:13:14;21.50;99.90
20370;DHT22;10344;47.592;9.600;2022-10-26T12:15:52;21.30;99.90
20370;DHT22;10344;47.592;9.600;2022-10-26T12:18:27;20.90;99.90
20370;DHT22;10344;47.592;9.600;2022-10-26T12:21:00;20.90;99.90
20370;DHT22;10344;47.592;9.600;2022-10-26T12:31:47;21.40;99.90
20370;DHT22;10344;47.592;9.600;2022-10-26T12:34:14;21.40;99.90
20370;DHT22;10344;47.592;9.600;2022-10-26T12:39:33;21.40;99.90
20370;DHT22;10344;47.592;9.600;2022-10-26T12:47:04;21.00;99.90
20370;DHT22;10344;47.592;9.600;2022-10-26T12:52:44;21.00;99.90
20370;DHT22;10344;47.592;9.600;2022-10-26T12:55:15;20.70;99.90
20370;DHT22;10344;47.592;9.600;2022-10-26T13:00:37;20.50;99.90
20370;DHT22;10344;47.592;9.600;2022-10-26T13:08:54;20.60;99.90
20370;DHT22;10344;47.592;9.600;2022-10-26T13:11:34;20.50;99.90
20370;DHT22;10344;47.592;9.600;2022-10-26T13:14:03;20.40;99.90
20370;DHT22;10344;47.592;9.600;2022-10-26T13:16:30;20.20;99.90
20370;DHT22;10344;47.592;9.600;2022-10-26T13:18:56;20.10;99.90
20370;DHT22;10344;47.592;9.600;2022-10-26T13:21:23;20.00;99.90
20370;DHT22;10344;47.592;9.600;2022-10-26T13:26:22;20.00;99.90
20370;DHT22;10344;47.592;9.600;2022-10-26T13:28:54;20.00;99.90
20370;DHT22;10344;47.592;9.600;2022-10-26T13:36:48;20.00;99.90
20370;DHT22;10344;47.592;9.600;2022-10-26T13:39:29;19.90;99.90
20370;DHT22;10344;47.592;9.600;2022-10-26T13:41:58;19.90;99.90
20370;DHT22;10344;47.592;9.600;2022-10-26T13:47:01;19.80;99.90
20370;DHT22;10344;47.592;9.600;2022-10-26T13:49:32;19.70;99.90
20370;DHT22;10344;47.592;9.600;2022-10-26T13:52:01;19.70;99.90
20370;DHT22;10344;47.592;9.600;2022-10-26T13:59:37;19.70;99.90
20370;DHT22;10344;47.592;9.600;2022-10-26T14:02:24;19.80;99.90
20370;DHT22;10344;47.592;9.600;2022-10-26T14:04:59;19.70;99.90
20370;DHT22;10344;47.592;9.600;2022-10-26T14:07:49;19.80;99.90
20370;DHT22;10344;47.592;9.600;2022-10-26T14:12:52;19.80;99.90
20370;DHT22;10344;47.592;9.600;2022-10-26T14:15:31;19.80;99.90
20370;DHT22;10344;47.592;9.600;2022-10-26T14:17:59;19.70;99.90
20370;DHT22;10344;47.592;9.600;2022-10-26T14:20:29;19.60;99.90
20370;DHT22;10344;47.592;9.600;2022-10-26T14:22:56;19.60;99.90
20370;DHT22;10344;47.592;9.600;2022-10-26T14:25:27;19.60;99.90
20370;DHT22;10344;47.592;9.600;2022-10-26T14:27:54;19.60;99.90
20370;DHT22;10344;47.592;9.600;2022-10-26T14:32:48;19.60;99.90
20370;DHT22;10344;47.592;9.600;2022-10-26T14:35:14;19.60;99.90
20370;DHT22;10344;47.592;9.600;2022-10-26T14:38:02;19.60;99.90
20370;DHT22;10344;47.592;9.600;2022-10-26T14:40:33;19.70;99.90
20370;DHT22;10344;47.592;9.600;2022-10-26T14:43:01;19.50;99.90
20370;DHT22;10344;47.592;9.600;2022-10-26T14:45:34;19.50;99.90
20370;DHT22;10344;47.592;9.600;2022-10-26T14:48:01;19.50;99.90
20370;DHT22;10344;47.592;9.600;2022-10-26T14:50:28;19.50;99.90
20370;DHT22;10344;47.592;9.600;2022-10-26T14:55:46;19.30;99.90
20370;DHT22;10344;47.592;9.600;2022-10-26T14:58:29;19.20;99.90
20370;DHT22;10344;47.592;9.600;2022-10-26T15:03:41;19.10;99.90
20370;DHT22;10344;47.592;9.600;2022-10-26T15:09:02;19.00;99.90
20370;DHT22;10344;47.592;9.600;2022-10-26T15:11:31;19.00;99.90
20370;DHT22;10344;47.592;9.600;2022-10-26T15:13:58;18.90;99.90
20370;DHT22;10344;47.592;9.600;2022-10-26T15:16:29;18.90;99.90
20370;DHT22;10344;47.592;9.600;2022-10-26T15:19:06;18.80;99.90
20370;DHT22;10344;47.592;9.600;2022-10-26T15:21:35;18.80;99.90
20370;DHT22;10344;47.592;9.600;2022-10-26T15:24:34;18.70;99.90
20370;DHT22;10344;47.592;9.600;2022-10-26T15:26:58;18.60;99.90
20370;DHT22;10344;47.592;9.600;2022-10-26T15:29:44;18.50;99.90
20370;DHT22;10344;47.592;9.600;2022-10-26T15:32:28;18.40;99.90
20370;DHT22;10344;47.592;9.600;2022-10-26T15:37:44;18.20;99.90
20370;DHT22;10344;47.592;9.600;2022-10-26T15:40:11;18.10;99.90
20370;DHT22;10344;47.592;9.600;2022-10-26T15:42:38;18.00;99.90
20370;DHT22;10344;47.592;9.600;2022-10-26T15:47:44;17.80;99.90
20370;DHT22;10344;47.592;9.600;2022-10-26T15:50:27;17.70;99.90
20370;DHT22;10344;47.592;9.600;2022-10-26T15:53:00;17.50;99.90
20370;DHT22;10344;47.592;9.600;2022-10-26T15:55:27;17.40;99.90
20370;DHT22;10344;47.592;9.600;2022-10-26T15:57:54;17.40;99.90
20370;DHT22;10344;47.592;9.600;2022-10-26T16:00:20;17.30;99.90
20370;DHT22;10344;47.592;9.600;2022-10-26T16:02:48;17.20;99.90
20370;DHT22;10344;47.592;9.600;2022-10-26T16:05:14;17.00;99.90
20370;DHT22;10344;47.592;9.600;2022-10-26T16:07:44;16.90;99.90
20370;DHT22;10344;47.592;9.600;2022-10-26T16:10:20;16.80;99.90
20370;DHT22;10344;47.592;9.600;2022-10-26T16:12:46;16.70;99.90
20370;DHT22;10344;47.592;9.600;2022-10-26T16:15:20;16.60;99.90
20370;DHT22;10344;47.592;9.600;2022-10-26T16:17:49;16.50;99.90
20370;DHT22;10344;47.592;9.600;2022-10-26T16:20:20;16.50;99.90
20370;DHT22;10344;47.592;9.600;2022-10-26T16:22:51;16.40;99.90
20370;DHT22;10344;47.592;9.600;2022-10-26T16:25:20;16.30;99.90
20370;DHT22;10344;47.592;9.600;2022-10-26T16:27:48;16.20;99.90
20370;DHT22;10344;47.592;9.600;2022-10-26T16:30:17;16.10;99.90
20370;DHT22;10344;47.592;9.600;2022-10-26T16:32:43;16.00;99.90
20370;DHT22;10344;47.592;9.600;2022-10-26T16:35:12;15.90;99.90
20370;DHT22;10344;47.592;9.600;2022-10-26T16:37:38;15.80;99.90
20370;DHT22;10344;47.592;9.600;2022-10-26T16:40:05;15.80;99.90
20370;DHT22;10344;47.592;9.600;2022-10-26T16:42:31;15.70;99.90
20370;DHT22;10344;47.592;9.600;2022-10-26T16:44:57;15.70;99.90
20370;DHT22;10344;47.592;9.600;2022-10-26T16:47:23;15.60;99.90
20370;DHT22;10344;47.592;9.600;2022-10-26T16:49:49;15.60;99.90
20370;DHT22;10344;47.592;9.600;2022-10-26T16:52:15;15.60;99.90
20370;DHT22;10344;47.592;9.600;2022-10-26T16:54:46;15.60;99.90
20370;DHT22;10344;47.592;9.600;2022-10-26T16:57:34;15.50;99.90
20370;DHT22;10344;47.592;9.600;2022-10-26T17:04:03;15.50;99.90
20370;DHT22;10344;47.592;9.600;2022-10-26T17:11:15;15.40;99.90
20370;DHT22;10344;47.592;9.600;2022-10-26T17:14:08;15.40;99.90
20370;DHT22;10344;47.592;9.600;2022-10-26T17:20:09;15.40;99.90
20370;DHT22;10344;47.592;9.600;2022-10-26T17:23:26;15.30;99.90
20370;DHT22;10344;47.592;9.600;2022-10-26T17:26:06;15.20;99.90
20370;DHT22;10344;47.592;9.600;2022-10-26T17:29:18;15.20;99.90
20370;DHT22;10344;47.592;9.600;2022-10-26T17:32:23;15.10;99.90
20370;DHT22;10344;47.592;9.600;2022-10-26T17:35:25;15.10;99.90
20370;DHT22;10344;47.592;9.600;2022-10-26T17:38:40;15.10;99.90
20370;DHT22;10344;47.592;9.600;2022-10-26T17:42:23;15.10;99.90
20370;DHT22;10344;47.592;9.600;2022-10-26T17:45:28;15.10;99.90
20370;DHT22;10344;47.592;9.600;2022-10-26T17:48:29;15.10;99.90
20370;DHT22;10344;47.592;9.600;2022-10-26T17:51:46;15.10;99.90
20370;DHT22;10344;47.592;9.600;2022-10-26T17:54:58;15.10;99.90
20370;DHT22;10344;47.592;9.600;2022-10-26T17:58:18;15.00;99.90
20370;DHT22;10344;47.592;9.600;2022-10-26T18:01:45;15.00;99.90
20370;DHT22;10344;47.592;9.600;2022-10-26T18:05:29;14.90;99.90
20370;DHT22;10344;47.592;9.600;2022-10-26T18:09:20;14.90;99.90
20370;DHT22;10344;47.592;9.600;2022-10-26T18:11:58;14.80;99.90
20370;DHT22;10344;47.592;9.600;2022-10-26T18:18:34;14.70;99.90
20370;DHT22;10344;47.592;9.600;2022-10-26T18:22:01;14.70;99.90
20370;DHT22;10344;47.592;9.600;2022-10-26T18:25:32;14.70;99.90
20370;DHT22;10344;47.592;9.600;2022-10-26T18:29:19;14.70;99.90
20370;DHT22;10344;47.592;9.600;2022-10-26T18:32:06;14.70;99.90
20370;DHT22;10344;47.592;9.600;2022-10-26T18:38:42;14.60;99.90
20370;DHT22;10344;47.592;9.600;2022-10-26T18:41:25;14.60;99.90
20370;DHT22;10344;47.592;9.600;2022-10-26T18:44:42;14.60;99.90
20370;DHT22;10344;47.592;9.600;2022-10-26T18:47:47;14.50;99.90
20370;DHT22;10344;47.592;9.600;2022-10-26T18:50:42;14.50;99.90
20370;DHT22;10344;47.592;9.600;2022-10-26T18:53:59;14.50;99.90
20370;DHT22;10344;47.592;9.600;2022-10-26T18:57:00;14.50;99.90
20370;DHT22;10344;47.592;9.600;2022-10-26T19:00:24;14.50;99.90
20370;DHT22;10344;47.592;9.600;2022-10-26T19:03:08;14.50;99.90
20370;DHT22;10344;47.592;9.600;2022-10-26T19:06:14;14.40;99.90
20370;DHT22;10344;47.592;9.600;2022-10-26T19:09:13;14.40;99.90
20370;DHT22;10344;47.592;9.600;2022-10-26T19:12:13;14.40;99.90
20370;DHT22;10344;47.592;9.600;2022-10-26T19:15:24;14.30;99.90
20370;DHT22;10344;47.592;9.600;2022-10-26T19:22:17;14.40;99.90
20370;DHT22;10344;47.592;9.600;2022-10-26T19:25:45;14.40;99.90
20370;DHT22;10344;47.592;9.600;2022-10-26T19:28:43;14.40;99.90
20370;DHT22;10344;47.592;9.600;2022-10-26T19:38:49;14.20;99.90
20370;DHT22;10344;47.592;9.600;2022-10-26T19:42:35;14.30;99.90
20370;DHT22;10344;47.592;9.600;2022-10-26T19:46:11;14.40;99.90
20370;DHT22;10344;47.592;9.600;2022-10-26T19:49:51;14.40;99.90
20370;DHT22;10344;47.592;9.600;2022-10-26T19:52:29;14.50;99.90
20370;DHT22;10344;47.592;9.600;2022-10-26T19:55:42;14.50;99.90
20370;DHT22;10344;47.592;9.600;2022-10-26T19:58:46;14.50;99.90
20370;DHT22;10344;47.592;9.600;2022-10-26T20:03:49;14.50;99.90
20370;DHT22;10344;47.592;9.600;2022-10-26T20:06:35;14.50;99.90
20370;DHT22;10344;47.592;9.600;2022-10-26T20:09:46;14.50;99.90
20370;DHT22;10344;47.592;9.600;2022-10-26T20:12:40;14.30;99.90
20370;DHT22;10344;47.592;9.600;2022-10-26T20:16:03;14.30;99.90
20370;DHT22;10344;47.592;9.600;2022-10-26T20:18:41;14.40;99.90
20370;DHT22;10344;47.592;9.600;2022-10-26T20:21:37;14.30;99.90
20370;DHT22;10344;47.592;9.600;2022-10-26T20:24:55;14.30;99.90
20370;DHT22;10344;47.592;9.600;2022-10-26T20:28:28;14.30;99.90
20370;DHT22;10344;47.592;9.600;2022-10-26T20:31:47;14.30;99.90
20370;DHT22;10344;47.592;9.600;2022-10-26T20:34:43;14.30;99.90
20370;DHT22;10344;47.592;9.600;2022-10-26T20:41:41;14.30;99.90
20370;DHT22;10344;47.592;9.600;2022-10-26T20:44:29;14.40;99.90
20370;DHT22;10344;47.592;9.600;2022-10-26T20:47:43;14.30;99.90
20370;DHT22;10344;47.592;9.600;2022-10-26T20:51:17;14.20;99.90
20370;DHT22;10344;47.592;9.600;2022-10-26T20:54:49;14.20;99.90
20370;DHT22;10344;47.592;9.600;2022-10-26T20:58:21;14.20;99.90
20370;DHT22;10344;47.592;9.600;2022-10-26T22:01:13;14.10;99.90
20370;DHT22;10344;47.592;9.600;2022-10-26T22:03:48;14.30;99.90
20370;DHT22;10344;47.592;9.600;2022-10-26T22:06:20;14.40;99.90
20370;DHT22;10344;47.592;9.600;2022-10-26T22:08:51;14.40;99.90
20370;DHT22;10344;47.592;9.600;2022-10-26T22:12:16;14.40;99.90
20370;DHT22;10344;47.592;9.600;2022-10-26T22:15:37;14.40;99.90
20370;DHT22;10344;47.592;9.600;2022-10-26T22:18:43;14.30;99.90
20370;DHT22;10344;47.592;9.600;2022-10-26T22:21:31;14.20;99.90
20370;DHT22;10344;47.592;9.600;2022-10-26T22:24:01;14.20;99.90
20370;DHT22;10344;47.592;9.600;2022-10-26T22:26:53;14.10;99.90
20370;DHT22;10344;47.592;9.600;2022-10-26T22:30:06;14.00;99.90
20370;DHT22;10344;47.592;9.600;2022-10-26T22:36:08;13.90;99.90
20370;DHT22;10344;47.592;9.600;2022-10-26T22:39:15;13.80;99.90
20370;DHT22;10344;47.592;9.600;2022-10-26T22:41:44;13.80;99.90
20370;DHT22;10344;47.592;9.600;2022-10-26T22:44:50;13.80;99.90
20370;DHT22;10344;47.592;9.600;2022-10-26T22:47:34;13.80;99.90
20370;DHT22;10344;47.592;9.600;2022-10-26T22:50:44;13.80;99.90
20370;DHT22;10344;47.592;9.600;2022-10-26T22:54:12;13.70;99.90
20370;DHT22;10344;47.592;9.600;2022-10-26T22:57:21;13.80;99.90
20370;DHT22;10344;47.592;9.600;2022-10-26T23:00:29;13.80;99.90
20370;DHT22;10344;47.592;9.600;2022-10-26T23:03:27;13.80;99.90